createdAt,value
2022-10-11T00:04:42.320Z,43.31
2022-10-11T00:09:43.832Z,45.04
2022-10-11T00:14:45.305Z,45.92
2022-10-11T00:19:46.801Z,46.72
2022-10-11T00:24:48.304Z,48.24
2022-10-11T00:29:49.939Z,52.43
2022-10-11T00:34:51.412Z,50.26
2022-10-11T00:39:52.880Z,47.96
2022-10-11T00:45:26.147Z,48.39
2022-10-11T00:50:28.344Z,48.67
2022-10-11T00:55:31.310Z,46.37
2022-10-11T01:00:32.792Z,43.01
2022-10-11T01:05:35.784Z,44.05
2022-10-11T01:10:37.262Z,43.85
2022-10-11T01:16:06.339Z,43.83
2022-10-11T01:21:33.704Z,44.84
2022-10-11T01:27:08.100Z,47.00
2022-10-11T01:32:15.403Z,45.56
2022-10-11T01:37:19.410Z,45.44
2022-10-11T01:42:20.912Z,45.93
2022-10-11T01:47:23.075Z,43.97
2022-10-11T01:52:25.682Z,46.01
2022-10-11T01:57:45.962Z,45.03
2022-10-11T02:03:11.515Z,43.91
2022-10-11T02:08:31.488Z,44.39
2022-10-11T02:13:48.733Z,43.86
2022-10-11T02:18:51.151Z,42.61
2022-10-11T02:24:09.461Z,42.98
2022-10-11T02:29:11.118Z,41.78
2022-10-11T02:34:16.481Z,39.21
2022-10-11T02:39:21.994Z,38.90
2022-10-11T02:44:31.868Z,40.85
2022-10-11T02:49:33.374Z,40.91
2022-10-11T02:54:34.882Z,41.66
2022-10-11T02:59:36.385Z,42.16
2022-10-11T03:04:37.866Z,41.92
2022-10-11T03:09:39.403Z,42.80
2022-10-11T03:14:40.867Z,42.39
2022-10-11T03:19:42.343Z,41.92
2022-10-11T03:24:43.816Z,42.44
2022-10-11T03:29:45.331Z,42.64
2022-10-11T03:34:46.803Z,42.28
2022-10-11T03:39:48.744Z,42.51
2022-10-11T03:44:51.900Z,42.02
2022-10-11T03:49:53.424Z,40.64
2022-10-11T03:54:56.195Z,39.28
2022-10-11T03:59:57.830Z,41.32
2022-10-11T04:04:59.308Z,42.30
2022-10-11T04:10:00.775Z,42.52
2022-10-11T04:15:02.258Z,43.22
2022-10-11T04:20:03.987Z,43.46
2022-10-11T04:25:06.568Z,40.96
2022-10-11T04:30:09.446Z,41.51
2022-10-11T04:35:10.940Z,41.26
2022-10-11T04:40:12.649Z,42.98
2022-10-11T04:45:14.188Z,42.21
2022-10-11T04:50:16.091Z,43.33
2022-10-11T04:55:17.628Z,42.59
2022-10-11T05:00:19.207Z,42.01
2022-10-11T05:05:20.696Z,42.67
2022-10-11T05:10:22.176Z,41.87
2022-10-11T05:15:23.642Z,42.43
2022-10-11T05:20:25.137Z,41.48
2022-10-11T05:25:26.603Z,42.06
2022-10-11T05:30:28.076Z,42.29
2022-10-11T05:35:29.558Z,43.27
2022-10-11T05:40:31.434Z,43.89
2022-10-11T05:45:35.721Z,43.94
2022-10-11T05:50:37.343Z,42.76
2022-10-11T05:55:39.473Z,42.26
2022-10-11T06:00:41.027Z,40.60
2022-10-11T06:05:42.572Z,39.54
2022-10-11T06:10:44.784Z,40.23
2022-10-11T06:15:46.252Z,43.46
2022-10-11T06:20:47.718Z,43.96
2022-10-11T06:26:03.013Z,44.54
2022-10-11T06:31:05.381Z,46.01
2022-10-11T06:36:09.756Z,51.48
2022-10-11T06:41:16.552Z,52.72
2022-10-11T06:46:18.844Z,52.22
2022-10-11T06:51:21.053Z,51.22
2022-10-11T06:56:22.634Z,51.18
2022-10-11T07:01:24.191Z,50.36
2022-10-11T07:06:27.137Z,49.73
2022-10-11T07:11:28.771Z,49.63
2022-10-11T07:16:30.474Z,49.68
2022-10-11T07:21:32.569Z,49.51
2022-10-11T07:26:38.872Z,49.35
2022-10-11T07:31:41.608Z,49.63
2022-10-11T07:36:43.085Z,49.83
2022-10-11T07:41:46.069Z,49.59
2022-10-11T07:46:47.684Z,49.71
2022-10-11T07:51:49.169Z,48.71
2022-10-11T07:56:50.668Z,49.02
2022-10-11T08:01:52.219Z,48.94
2022-10-11T08:06:53.750Z,49.56
2022-10-11T08:11:55.246Z,48.82
2022-10-11T08:16:56.728Z,47.96
2022-10-11T08:21:58.240Z,49.74
2022-10-11T08:26:59.733Z,50.83
2022-10-11T08:32:01.217Z,50.21
2022-10-11T08:37:02.707Z,49.72
2022-10-11T08:42:06.874Z,49.00
2022-10-11T08:47:17.838Z,48.93
2022-10-11T08:52:21.835Z,48.63
2022-10-11T08:57:24.971Z,49.18
2022-10-11T09:02:55.654Z,48.79
2022-10-11T09:08:31.325Z,45.53
2022-10-11T09:14:08.595Z,45.19
2022-10-11T09:19:29.129Z,49.92
2022-10-11T09:24:59.347Z,49.32
2022-10-11T09:30:10.915Z,49.62
2022-10-11T09:35:18.872Z,49.51
2022-10-11T09:40:29.762Z,49.84
2022-10-11T09:45:31.273Z,48.97
2022-10-11T09:50:32.798Z,48.57
2022-10-11T09:55:52.940Z,48.18
2022-10-11T10:01:02.757Z,48.49
2022-10-11T10:06:26.077Z,47.17
2022-10-11T10:11:27.569Z,47.09
2022-10-11T10:16:32.658Z,46.34
2022-10-11T10:21:38.506Z,46.50
2022-10-11T10:26:40.472Z,46.30
2022-10-11T10:32:16.257Z,47.90
2022-10-11T10:37:18.220Z,48.01
2022-10-11T10:42:19.955Z,47.47
2022-10-11T10:47:29.186Z,46.04
2022-10-11T10:52:46.525Z,43.58
2022-10-11T10:58:00.117Z,42.32
2022-10-11T11:03:40.374Z,41.83
2022-10-11T11:08:57.198Z,42.04
2022-10-11T11:14:00.559Z,41.09
2022-10-11T11:19:35.156Z,40.58
2022-10-11T11:25:07.030Z,40.45
2022-10-11T11:30:09.668Z,40.00
2022-10-11T11:35:23.288Z,42.98
2022-10-11T11:41:06.001Z,44.41
2022-10-11T11:46:20.522Z,43.92
2022-10-11T11:51:27.806Z,43.48
2022-10-11T11:56:34.526Z,43.45
2022-10-11T12:01:52.419Z,42.70
2022-10-11T12:07:16.633Z,43.12
2022-10-11T12:12:33.783Z,43.23
2022-10-11T12:17:57.237Z,41.28
2022-10-11T12:23:03.415Z,41.12
2022-10-11T12:28:43.368Z,41.72
2022-10-11T12:33:45.296Z,41.37
2022-10-11T12:38:46.831Z,41.47
2022-10-11T12:43:48.152Z,41.39
2022-10-11T12:48:56.201Z,42.49
2022-10-11T12:54:28.994Z,41.36
2022-10-11T12:59:32.644Z,42.35
2022-10-11T13:04:34.176Z,39.70
2022-10-11T13:09:39.283Z,39.35
2022-10-11T13:14:48.272Z,39.49
2022-10-11T13:19:51.654Z,40.10
2022-10-11T13:24:57.917Z,41.58
2022-10-11T13:30:00.915Z,40.46
2022-10-11T13:35:07.240Z,41.41
2022-10-11T13:40:18.688Z,41.18
2022-10-11T13:45:22.279Z,40.86
2022-10-11T13:50:34.530Z,41.91
2022-10-11T13:55:36.875Z,42.08
2022-10-11T14:00:38.456Z,43.53
2022-10-11T14:05:42.141Z,45.11
2022-10-11T14:10:46.652Z,45.77
2022-10-11T14:16:08.337Z,44.92
2022-10-11T14:21:19.225Z,45.96
2022-10-11T14:26:21.282Z,47.83
2022-10-11T14:31:22.829Z,50.75
2022-10-11T14:36:24.344Z,50.84
2022-10-11T14:41:25.902Z,49.40
2022-10-11T14:46:27.651Z,48.65
2022-10-11T14:51:31.209Z,48.86
2022-10-11T14:56:32.778Z,48.58
2022-10-11T15:01:34.328Z,48.35
2022-10-11T15:06:37.752Z,47.85
2022-10-11T15:11:39.253Z,48.18
2022-10-11T15:16:40.863Z,48.77
2022-10-11T15:21:42.368Z,48.38
2022-10-11T15:26:45.199Z,48.67
2022-10-11T15:31:46.696Z,48.45
2022-10-11T15:36:49.947Z,49.10
2022-10-11T15:41:51.476Z,47.65
2022-10-11T15:46:52.961Z,47.71
2022-10-11T15:51:54.516Z,48.34
2022-10-11T15:56:56.008Z,47.92
2022-10-11T16:01:57.563Z,47.43
2022-10-11T16:06:59.126Z,47.39
2022-10-11T16:12:00.626Z,47.05
2022-10-11T16:17:04.014Z,46.21
2022-10-11T16:22:05.496Z,46.27
2022-10-11T16:27:06.987Z,45.70
2022-10-11T16:32:08.705Z,46.45
2022-10-11T16:37:10.507Z,44.99
2022-10-11T16:42:12.029Z,45.33
2022-10-11T16:47:13.653Z,43.92
2022-10-11T16:52:15.189Z,43.77
2022-10-11T16:57:17.544Z,44.13
2022-10-11T17:02:24.577Z,44.02
2022-10-11T17:07:27.307Z,45.72
2022-10-11T17:12:28.842Z,44.92
2022-10-11T17:17:30.651Z,45.82
2022-10-11T17:22:32.156Z,45.39
2022-10-11T17:33:57.709Z,43.89
2022-10-11T17:38:59.427Z,44.42
2022-10-11T17:44:01.799Z,45.78
2022-10-11T17:49:06.896Z,46.43
2022-10-11T17:54:12.577Z,45.79
2022-10-11T17:59:18.419Z,45.00
2022-10-11T18:04:21.237Z,45.32
2022-10-11T18:09:22.951Z,44.96
2022-10-11T18:14:24.416Z,44.08
2022-10-11T18:19:25.979Z,44.12
2022-10-11T18:24:27.568Z,44.11
2022-10-11T18:29:29.039Z,43.78
2022-10-11T18:34:30.502Z,43.25
2022-10-11T18:39:32.090Z,43.42
2022-10-11T18:44:33.590Z,43.59
2022-10-11T18:49:35.091Z,43.83
2022-10-11T18:54:36.560Z,43.48
2022-10-11T18:59:38.012Z,44.09
2022-10-11T19:04:39.682Z,44.10
2022-10-11T19:09:41.187Z,44.05
2022-10-11T19:14:42.746Z,43.83
2022-10-11T19:19:44.209Z,44.66
2022-10-11T19:24:45.766Z,45.00
2022-10-11T19:29:47.217Z,45.20
2022-10-11T19:34:48.685Z,44.75
2022-10-11T19:39:50.145Z,45.67
2022-10-11T19:44:51.601Z,45.28
2022-10-11T19:49:53.082Z,45.07
2022-10-11T19:54:54.535Z,44.86
2022-10-11T19:59:56.033Z,45.15
2022-10-11T20:04:57.510Z,45.57
2022-10-11T20:09:58.969Z,45.58
2022-10-11T20:15:00.431Z,46.46
2022-10-11T20:20:01.873Z,45.68
2022-10-11T20:25:03.324Z,45.43
2022-10-11T20:30:05.251Z,45.42
2022-10-11T20:35:06.981Z,45.70
2022-10-11T20:40:09.061Z,45.67
2022-10-11T20:45:10.750Z,45.88
2022-10-11T20:50:12.379Z,45.87
2022-10-11T20:55:13.845Z,46.25
2022-10-11T21:00:15.540Z,46.14
2022-10-11T21:05:18.063Z,45.90
2022-10-11T21:10:19.538Z,45.92
2022-10-11T21:15:20.993Z,46.42
2022-10-11T21:20:22.876Z,46.32
2022-10-11T21:25:24.333Z,46.44
2022-10-11T21:30:25.842Z,46.65
2022-10-11T21:35:27.795Z,47.09
2022-10-11T21:40:29.293Z,46.36
2022-10-11T21:45:30.739Z,45.83
2022-10-11T21:50:32.226Z,45.68
2022-10-11T21:55:33.669Z,45.26
2022-10-11T22:00:35.267Z,45.39
2022-10-11T22:05:36.770Z,44.70
2022-10-11T22:10:38.556Z,45.52
2022-10-11T22:15:40.007Z,45.50
2022-10-11T22:20:41.462Z,46.14
2022-10-11T22:25:42.909Z,45.77
2022-10-11T22:30:44.352Z,45.16
2022-10-11T22:35:45.801Z,46.06
2022-10-11T22:40:47.244Z,48.95
2022-10-11T22:45:48.705Z,49.27
2022-10-11T22:50:50.161Z,48.80
2022-10-11T22:55:51.742Z,49.54
2022-10-11T23:00:53.233Z,49.72
2022-10-11T23:05:57.887Z,48.81
2022-10-11T23:11:03.835Z,49.51
2022-10-11T23:16:09.239Z,49.76
2022-10-11T23:21:10.794Z,48.57
2022-10-11T23:26:13.482Z,47.02
2022-10-11T23:31:17.049Z,46.91
2022-10-11T23:36:25.392Z,45.94
2022-10-11T23:41:28.777Z,46.72
2022-10-11T23:46:30.254Z,47.02
2022-10-11T23:51:31.740Z,48.47
2022-10-11T23:56:33.224Z,48.71
